Time;durP1;ratioP1;P1;durP2;ratioP2;P2;SDS_P1;SDS_P2;PMS_P1;PMS_P2;Temp;Humidity;BMP_temperature;BMP_pressure;BME280_temperature;BME280_humidity;BME280_pressure;Samples;Min_cycle;Max_cycle;Signal;HPM_P1;HPM_P2
2021/12/10 00:00:46;;;;;;;7.28;2.50;;;;;;;5.98;66.78;95806.50;5000026;28;20278;-78
2021/12/10 00:03:19;;;;;;;8.52;2.22;;;;;;;5.85;67.09;95796.59;4989494;28;20162;-78
2021/12/10 00:05:50;;;;;;;7.20;2.47;;;;;;;5.66;66.96;95791.81;4980329;28;20331;-79
2021/12/10 00:08:16;;;;;;;4.90;1.85;;;;;;;5.93;67.01;95785.78;4984793;28;20182;-78
2021/12/10 00:10:46;;;;;;;8.15;2.90;;;;;;;5.82;67.67;95783.13;4996076;28;20194;-78
2021/12/10 00:13:12;;;;;;;7.90;2.30;;;;;;;5.81;67.03;95778.22;4980866;28;20189;-78
2021/12/10 00:15:40;;;;;;;6.05;2.83;;;;;;;5.90;67.19;95766.41;4982694;28;20284;-78
2021/12/10 00:18:08;;;;;;;8.23;2.50;;;;;;;5.88;66.85;95741.84;4996397;28;20751;-78
2021/12/10 00:20:35;;;;;;;8.20;2.72;;;;;;;5.78;66.91;95753.66;4986571;28;20518;-79
2021/12/10 00:23:16;;;;;;;5.97;2.83;;;;;;;5.71;67.03;95745.38;4988077;28;20224;-78
2021/12/10 00:25:46;;;;;;;6.65;2.22;;;;;;;5.99;66.34;95740.91;4995378;28;20185;-78
2021/12/10 00:28:19;;;;;;;8.43;2.00;;;;;;;5.76;66.87;95732.47;4969313;28;20356;-79
2021/12/10 00:31:31;;;;;;;4.05;1.95;;;;;;;5.85;66.30;95724.28;4974928;28;20684;-78
2021/12/10 00:34:02;;;;;;;8.40;2.33;;;;;;;5.89;65.94;95715.75;5004316;28;20292;-78
2021/12/10 00:36:28;;;;;;;7.68;1.90;;;;;;;5.97;66.26;95709.38;4996523;28;20154;-78
2021/12/10 00:38:54;;;;;;;8.70;2.33;;;;;;;6.03;66.57;95702.44;4985160;28;20247;-78
2021/12/10 00:41:20;;;;;;;6.65;1.92;;;;;;;5.96;66.52;95700.06;4986145;28;20261;-78
2021/12/10 00:43:46;;;;;;;5.18;1.85;;;;;;;6.09;66.54;95697.03;5001565;28;20747;-78
2021/12/10 00:46:11;;;;;;;4.72;1.58;;;;;;;6.08;66.58;95681.78;5004027;28;20170;-78
2021/12/10 00:48:38;;;;;;;13.48;2.55;;;;;;;6.10;66.21;95677.94;5000982;28;20636;-78
2021/12/10 00:51:06;;;;;;;4.05;1.55;;;;;;;6.00;66.54;95670.91;4995487;28;20650;-79
2021/12/10 00:53:31;;;;;;;6.78;2.38;;;;;;;6.13;66.34;95664.47;5004849;28;20360;-78
2021/12/10 00:55:57;;;;;;;5.75;1.90;;;;;;;6.17;65.94;95657.78;5005869;28;20254;-78
2021/12/10 00:58:25;;;;;;;5.70;2.15;;;;;;;6.09;66.51;95649.75;5005189;28;20197;-78
2021/12/10 01:00:54;;;;;;;6.07;1.98;;;;;;;6.02;66.19;95646.63;4987212;28;20293;-78
2021/12/10 01:03:24;;;;;;;5.15;1.45;;;;;;;6.00;66.44;95631.38;4998542;28;20654;-78
2021/12/10 01:05:53;;;;;;;3.30;1.42;;;;;;;6.08;65.71;95637.84;4996927;28;20345;-78
2021/12/10 01:08:19;;;;;;;3.13;1.17;;;;;;;6.06;65.62;95620.03;5000565;28;20235;-78
2021/12/10 01:10:52;;;;;;;6.18;2.33;;;;;;;5.94;65.77;95619.44;4998957;28;20699;-78
2021/12/10 01:13:29;;;;;;;4.70;1.60;;;;;;;5.87;65.56;95613.72;4986438;28;20238;-78
2021/12/10 01:24:31;;;;;;;2.55;1.25;;;;;;;5.97;65.49;95587.97;5004462;28;20229;-78
2021/12/10 01:27:02;;;;;;;3.72;1.48;;;;;;;5.96;65.56;95578.66;4990205;28;20155;-78
2021/12/10 01:29:31;;;;;;;3.33;1.13;;;;;;;5.87;65.27;95580.91;4987590;28;20154;-78
2021/12/10 01:31:58;;;;;;;4.20;1.45;;;;;;;5.90;65.58;95571.91;5004531;28;20216;-79
2021/12/10 01:34:26;;;;;;;6.82;2.45;;;;;;;5.85;65.61;95564.13;5003186;28;20274;-78
2021/12/10 01:36:54;;;;;;;3.05;1.65;;;;;;;5.72;65.44;95555.03;5004852;28;20284;-79
2021/12/10 01:39:23;;;;;;;4.97;1.40;;;;;;;5.62;65.54;95543.66;4970647;28;20287;-78
2021/12/10 01:41:53;;;;;;;5.00;0.90;;;;;;;5.67;65.26;95550.63;5003497;28;20254;-79
2021/12/10 01:44:27;;;;;;;4.88;1.50;;;;;;;5.67;65.89;95540.28;5014179;28;20370;-78
2021/12/10 01:46:53;;;;;;;5.85;1.20;;;;;;;5.67;64.78;95540.28;5004427;28;20318;-78
2021/12/10 01:49:19;;;;;;;6.22;1.88;;;;;;;5.59;65.27;95541.56;5003594;28;20270;-78
2021/12/10 01:51:45;;;;;;;4.45;1.58;;;;;;;5.50;65.13;95529.38;4966788;28;20181;-79
2021/12/10 01:54:21;;;;;;;4.72;1.08;;;;;;;5.34;65.41;95529.31;5004694;28;20169;-79
2021/12/10 01:56:48;;;;;;;6.75;1.70;;;;;;;5.30;65.83;95520.53;5018461;28;20594;-78
2021/12/10 01:59:15;;;;;;;3.75;1.15;;;;;;;5.30;65.94;95523.13;4984293;28;20334;-79
2021/12/10 02:01:45;;;;;;;4.93;1.30;;;;;;;5.24;65.90;95512.00;4986986;28;20203;-79
2021/12/10 02:04:15;;;;;;;5.97;1.15;;;;;;;5.22;66.12;95508.13;4989382;28;20425;-78
2021/12/10 02:06:41;;;;;;;4.70;1.27;;;;;;;5.31;66.13;95501.44;4969166;28;20204;-78
2021/12/10 02:09:08;;;;;;;6.30;1.50;;;;;;;5.22;65.83;95500.38;4982569;28;20242;-78
2021/12/10 02:11:34;;;;;;;5.20;1.08;;;;;;;5.23;66.51;95500.13;4997656;28;20339;-79
2021/12/10 02:14:00;;;;;;;3.83;1.30;;;;;;;5.25;66.22;95490.31;5000694;28;20305;-78
2021/12/10 02:16:25;;;;;;;2.58;1.05;;;;;;;5.20;66.02;95490.31;4989944;28;20209;-78
2021/12/10 02:18:51;;;;;;;3.60;1.42;;;;;;;5.16;66.02;95478.19;4985234;28;20257;-78
2021/12/10 02:21:19;;;;;;;3.35;1.17;;;;;;;5.09;65.62;95472.44;4994731;28;20663;-78
2021/12/10 02:23:54;;;;;;;7.22;1.40;;;;;;;5.02;66.43;95463.16;5003609;28;20205;-78
2021/12/10 02:26:20;;;;;;;4.57;1.33;;;;;;;5.01;65.99;95451.25;5002338;28;20274;-78
2021/12/10 02:28:46;;;;;;;4.03;1.10;;;;;;;4.98;66.17;95446.59;4969483;28;20643;-78
2021/12/10 02:31:13;;;;;;;4.20;1.23;;;;;;;4.93;66.25;95441.41;4986144;28;20434;-79
2021/12/10 02:33:39;;;;;;;4.43;1.60;;;;;;;4.84;66.09;95433.38;5004994;28;20193;-78
2021/12/10 02:36:05;;;;;;;6.97;1.88;;;;;;;4.71;66.37;95422.75;4980772;28;20264;-78
2021/12/10 02:38:30;;;;;;;3.63;1.30;;;;;;;4.68;66.96;95416.31;5002613;28;20244;-79
2021/12/10 02:40:56;;;;;;;5.35;1.40;;;;;;;4.65;66.52;95412.41;5000119;28;20377;-78
2021/12/10 02:43:23;;;;;;;3.42;1.20;;;;;;;4.68;66.60;95409.34;4997605;28;20206;-78
2021/12/10 02:45:52;;;;;;;5.57;1.83;;;;;;;4.61;66.71;95395.09;5003005;28;20154;-79
2021/12/10 02:48:17;;;;;;;3.78;1.52;;;;;;;4.62;66.18;95392.28;4981113;28;20158;-78
2021/12/10 02:50:44;;;;;;;3.30;1.42;;;;;;;4.53;66.15;95390.44;4986882;28;20641;-78
2021/12/10 02:53:09;;;;;;;8.80;2.50;;;;;;;4.54;66.50;95382.47;4997609;28;20174;-78
2021/12/10 02:55:35;;;;;;;4.22;1.77;;;;;;;4.45;66.69;95371.81;5003022;28;20280;-79
2021/12/10 02:58:05;;;;;;;4.93;1.80;;;;;;;4.49;66.46;95372.13;4969792;28;20327;-79
2021/12/10 03:00:35;;;;;;;6.05;1.75;;;;;;;4.56;66.19;95369.31;4974653;28;20159;-79
2021/12/10 03:03:01;;;;;;;6.03;1.42;;;;;;;4.61;65.91;95359.81;4985693;28;20341;-79
2021/12/10 03:05:26;;;;;;;6.70;1.70;;;;;;;4.62;65.94;95358.78;4998978;28;20191;-79
2021/12/10 03:07:55;;;;;;;8.02;2.15;;;;;;;4.54;66.11;95351.53;4986138;28;20188;-79
2021/12/10 03:10:26;;;;;;;4.70;1.65;;;;;;;4.55;65.84;95360.81;4995187;28;20619;-79
2021/12/10 03:12:52;;;;;;;7.78;1.70;;;;;;;4.58;65.03;95355.16;4985939;28;20220;-79
2021/12/10 03:15:18;;;;;;;3.67;1.42;;;;;;;4.49;65.99;95341.22;4978902;28;20714;-79
2021/12/10 03:17:45;;;;;;;6.57;2.40;;;;;;;4.50;66.07;95337.59;4998303;28;20192;-79
2021/12/10 03:20:12;;;;;;;4.00;1.35;;;;;;;4.40;65.94;95332.38;4984621;28;20219;-79
2021/12/10 03:22:39;;;;;;;5.90;1.90;;;;;;;4.38;65.56;95334.44;5001097;28;20549;-79
2021/12/10 03:25:06;;;;;;;8.63;1.88;;;;;;;4.40;65.71;95327.22;4966080;28;20159;-79
2021/12/10 03:27:31;;;;;;;5.40;1.73;;;;;;;4.38;66.27;95327.47;4979607;28;20160;-79
2021/12/10 03:29:57;;;;;;;5.45;1.50;;;;;;;4.37;66.47;95328.53;4969419;28;20307;-79
2021/12/10 03:32:25;;;;;;;3.28;1.23;;;;;;;4.28;66.05;95328.22;4997969;28;20313;-79
2021/12/10 03:34:51;;;;;;;7.82;1.42;;;;;;;4.37;66.04;95327.72;4990742;28;20302;-79
2021/12/10 03:37:19;;;;;;;4.63;1.70;;;;;;;4.27;66.16;95323.31;4984208;28;20235;-79
2021/12/10 03:39:47;;;;;;;3.30;1.52;;;;;;;4.27;65.63;95324.06;4992834;28;20313;-79
2021/12/10 03:42:13;;;;;;;5.80;2.20;;;;;;;4.31;65.82;95325.13;4984077;28;20290;-79
2021/12/10 03:44:38;;;;;;;3.92;1.67;;;;;;;4.30;66.59;95325.38;5000294;28;20886;-79
2021/12/10 03:47:06;;;;;;;4.28;1.38;;;;;;;4.14;65.74;95324.50;5002825;28;20275;-79
2021/12/10 03:49:32;;;;;;;9.77;2.47;;;;;;;4.17;66.50;95318.09;4997776;28;20273;-79
2021/12/10 03:51:58;;;;;;;3.72;2.05;;;;;;;4.16;65.90;95311.38;4997651;28;20747;-79
2021/12/10 03:54:23;;;;;;;11.80;2.65;;;;;;;4.08;66.62;95310.06;4979964;28;20165;-79
2021/12/10 03:56:49;;;;;;;3.58;1.40;;;;;;;4.08;66.56;95300.53;5004573;28;20603;-79
2021/12/10 03:59:17;;;;;;;4.25;1.75;;;;;;;4.07;66.21;95300.78;4981672;28;20259;-79
2021/12/10 04:01:45;;;;;;;4.88;1.75;;;;;;;4.03;66.60;95297.16;4986060;28;20630;-79
2021/12/10 04:04:16;;;;;;;2.90;1.52;;;;;;;4.07;66.09;95288.66;5005417;28;20166;-79
2021/12/10 04:06:41;;;;;;;5.72;1.63;;;;;;;4.08;66.80;95281.75;4960572;28;20234;-79
2021/12/10 04:09:07;;;;;;;6.53;1.75;;;;;;;4.00;66.21;95277.06;4967206;28;20694;-79
2021/12/10 04:11:33;;;;;;;3.88;2.03;;;;;;;4.04;66.35;95275.53;4971770;28;20282;-80
2021/12/10 04:13:59;;;;;;;4.53;1.77;;;;;;;4.02;65.78;95264.69;4988173;28;20510;-80
2021/12/10 04:16:27;;;;;;;5.22;2.30;;;;;;;3.83;65.76;95265.09;4999948;28;20178;-79
2021/12/10 04:19:00;;;;;;;4.82;1.55;;;;;;;3.78;66.21;95249.63;4986026;28;20357;-79
2021/12/10 04:21:26;;;;;;;4.93;2.80;;;;;;;3.98;66.08;95245.63;5006150;28;20154;-79
2021/12/10 04:23:52;;;;;;;7.05;2.17;;;;;;;3.98;66.05;95235.34;4995431;28;20633;-80
2021/12/10 04:26:19;;;;;;;4.20;1.90;;;;;;;3.85;66.44;95239.88;4989269;28;20213;-80
2021/12/10 04:28:45;;;;;;;5.82;1.83;;;;;;;3.87;65.94;95227.56;4993944;28;20266;-79
2021/12/10 04:31:11;;;;;;;4.90;1.85;;;;;;;3.91;65.85;95238.13;5000789;28;20178;-80
2021/12/10 04:33:37;;;;;;;4.18;1.48;;;;;;;3.83;65.76;95221.34;4988434;28;20669;-79
2021/12/10 04:36:04;;;;;;;4.35;1.35;;;;;;;3.85;66.07;95221.88;5003175;28;20193;-79
2021/12/10 04:38:32;;;;;;;4.38;1.30;;;;;;;3.84;65.92;95211.81;5000587;28;20721;-79
2021/12/10 04:41:00;;;;;;;3.95;1.45;;;;;;;3.82;66.06;95204.38;4985390;28;20166;-79
2021/12/10 04:43:27;;;;;;;5.35;1.65;;;;;;;3.87;65.46;95209.53;5004994;28;20280;-80
2021/12/10 04:45:54;;;;;;;6.45;2.20;;;;;;;3.87;65.82;95206.16;4981468;28;20509;-80
2021/12/10 04:48:20;;;;;;;3.38;1.65;;;;;;;3.88;65.75;95195.63;4971277;28;20230;-79
2021/12/10 04:50:49;;;;;;;5.70;1.50;;;;;;;3.77;65.19;95186.31;4997436;28;20216;-80
2021/12/10 04:53:14;;;;;;;3.33;1.02;;;;;;;3.84;66.25;95179.13;4967978;28;20564;-79
2021/12/10 04:55:40;;;;;;;4.65;1.58;;;;;;;3.83;66.05;95175.00;4992064;28;20181;-80
2021/12/10 04:58:07;;;;;;;3.90;1.30;;;;;;;3.81;65.70;95173.72;5005347;28;20204;-79
2021/12/10 05:00:36;;;;;;;6.28;2.58;;;;;;;3.79;65.47;95168.03;4988353;28;20243;-80
2021/12/10 05:03:04;;;;;;;2.38;1.00;;;;;;;3.77;65.79;95165.72;4995523;28;20661;-79
2021/12/10 05:05:29;;;;;;;3.10;1.40;;;;;;;3.80;65.61;95154.91;5004479;28;20268;-80
2021/12/10 05:07:55;;;;;;;6.57;1.10;;;;;;;3.78;65.55;95154.38;4965685;28;20284;-79
2021/12/10 05:10:21;;;;;;;3.65;1.08;;;;;;;3.70;65.75;95137.63;4999535;28;20156;-79
2021/12/10 05:12:47;;;;;;;3.17;1.15;;;;;;;3.77;65.55;95150.28;4984366;28;20241;-79
2021/12/10 05:15:17;;;;;;;3.65;1.60;;;;;;;3.65;65.75;95141.97;4998695;28;20170;-79
2021/12/10 05:17:42;;;;;;;3.75;0.93;;;;;;;3.74;65.59;95135.34;5004315;28;20287;-79
2021/12/10 05:20:12;;;;;;;4.72;1.60;;;;;;;3.74;65.72;95132.75;4985871;28;20241;-80
2021/12/10 05:22:43;;;;;;;2.25;0.93;;;;;;;3.62;65.89;95127.06;4999307;28;20073;-80
2021/12/10 05:25:09;;;;;;;3.10;0.90;;;;;;;3.76;64.85;95125.56;5004538;28;20161;-80
2021/12/10 05:27:34;;;;;;;6.03;1.33;;;;;;;3.71;65.32;95113.44;5001424;28;20205;-80
2021/12/10 05:30:00;;;;;;;2.83;1.10;;;;;;;3.76;65.34;95107.53;4993366;28;20193;-80
2021/12/10 05:32:26;;;;;;;3.15;1.10;;;;;;;3.64;65.37;95099.25;5005035;28;20209;-80
2021/12/10 05:34:51;;;;;;;3.67;1.30;;;;;;;3.73;65.00;95095.94;4976064;28;20163;-79
2021/12/10 05:37:18;;;;;;;3.28;1.00;;;;;;;3.62;65.85;95086.66;4988647;28;20650;-80
2021/12/10 05:39:44;;;;;;;8.63;1.52;;;;;;;3.69;64.88;95091.56;4982176;28;20681;-80
2021/12/10 05:42:09;;;;;;;4.65;1.10;;;;;;;3.67;65.29;95080.75;4987157;28;20182;-80
2021/12/10 05:44:36;;;;;;;4.43;1.20;;;;;;;3.77;65.52;95080.00;4987100;28;20275;-80
2021/12/10 05:47:02;;;;;;;2.42;1.25;;;;;;;3.69;64.88;95071.75;4992952;28;20233;-80
2021/12/10 05:49:27;;;;;;;6.75;1.00;;;;;;;3.73;64.97;95072.00;5000274;28;20287;-80
2021/12/10 05:51:53;;;;;;;4.40;1.20;;;;;;;3.68;65.09;95062.47;4978743;28;20247;-81
2021/12/10 05:54:18;;;;;;;4.13;1.10;;;;;;;3.71;65.67;95049.09;5002311;28;20234;-80
2021/12/10 05:56:43;;;;;;;3.88;1.00;;;;;;;3.78;65.01;95048.84;4976213;28;20628;-82
2021/12/10 05:59:09;;;;;;;4.80;1.67;;;;;;;3.61;65.74;95036.19;4983785;28;20236;-81
2021/12/10 06:01:36;;;;;;;3.28;0.80;;;;;;;3.61;65.45;95038.00;4970381;28;20721;-80
2021/12/10 06:04:01;;;;;;;2.65;0.70;;;;;;;3.77;65.42;95026.75;4969732;28;20739;-81
2021/12/10 06:06:29;;;;;;;3.78;1.20;;;;;;;3.74;65.05;95014.38;4994947;28;20273;-79
2021/12/10 06:08:55;;;;;;;2.63;1.00;;;;;;;3.83;65.01;95015.41;4998968;28;20230;-80
2021/12/10 06:11:21;;;;;;;3.08;1.08;;;;;;;3.74;65.26;95007.41;4994995;28;20415;-81
2021/12/10 06:13:47;;;;;;;3.88;0.60;;;;;;;3.84;64.75;95011.03;5001070;28;20201;-82
2021/12/10 06:16:13;;;;;;;3.47;1.23;;;;;;;3.84;64.15;95000.72;4981108;28;20721;-80
2021/12/10 06:18:39;;;;;;;2.10;0.50;;;;;;;3.71;64.26;95002.00;4985281;28;20242;-80
2021/12/10 06:21:04;;;;;;;3.15;0.68;;;;;;;3.84;63.85;95001.53;5001218;28;20222;-80
2021/12/10 06:23:30;;;;;;;3.28;0.60;;;;;;;3.85;64.39;94997.91;4982337;28;20195;-80
2021/12/10 06:25:56;;;;;;;4.57;0.60;;;;;;;3.89;64.53;95009.25;4987493;28;20619;-81
2021/12/10 06:28:21;;;;;;;5.82;0.73;;;;;;;3.98;64.17;95011.34;4995554;28;20182;-80
2021/12/10 06:30:49;;;;;;;6.72;0.90;;;;;;;3.91;64.40;95002.03;4986481;28;20270;-80
2021/12/10 06:33:16;;;;;;;3.55;1.05;;;;;;;3.85;63.89;95008.19;4983977;28;20198;-81
2021/12/10 06:35:45;;;;;;;6.72;1.02;;;;;;;3.84;64.91;95001.53;4999321;28;20345;-81
2021/12/10 06:38:11;;;;;;;2.67;0.40;;;;;;;3.94;64.70;95005.91;4993662;28;20643;-81
2021/12/10 06:40:39;;;;;;;1.50;0.50;;;;;;;3.68;65.18;95003.28;4999431;28;20241;-80
2021/12/10 06:43:05;;;;;;;5.20;0.45;;;;;;;3.83;63.89;94991.47;4985879;28;20267;-81
2021/12/10 06:45:33;;;;;;;1.52;0.77;;;;;;;3.78;64.16;94983.75;4996582;28;20599;-81
2021/12/10 06:48:01;;;;;;;3.65;0.40;;;;;;;3.85;64.33;94969.59;5010246;28;20632;-80
2021/12/10 06:50:29;;;;;;;4.43;0.60;;;;;;;3.88;64.38;94976.81;4978782;28;20204;-81
2021/12/10 06:52:55;;;;;;;1.63;0.93;;;;;;;3.86;64.27;94966.00;4997184;28;20654;-81
2021/12/10 06:55:21;;;;;;;2.95;0.80;;;;;;;3.87;64.17;94964.97;4983926;28;20328;-81
2021/12/10 06:57:47;;;;;;;2.58;1.13;;;;;;;3.87;64.20;94957.25;4982295;28;20714;-81
2021/12/10 07:00:20;;;;;;;3.50;0.90;;;;;;;3.77;63.69;94964.97;4979921;28;20261;-81
2021/12/10 07:02:46;;;;;;;5.45;0.95;;;;;;;3.82;64.30;94966.75;4968241;28;20290;-81
2021/12/10 07:05:12;;;;;;;1.55;0.60;;;;;;;3.89;64.33;94968.06;4977609;28;20686;-81
2021/12/10 07:07:38;;;;;;;3.20;1.08;;;;;;;3.96;64.26;94972.97;4990306;28;20112;-81
2021/12/10 07:10:05;;;;;;;3.35;0.70;;;;;;;3.93;63.52;94981.19;5000322;28;20234;-80
2021/12/10 07:12:34;;;;;;;4.13;0.90;;;;;;;3.88;63.38;94978.63;5002373;28;20235;-81
2021/12/10 07:15:01;;;;;;;5.57;0.80;;;;;;;3.95;63.42;94979.13;4977740;28;20368;-81
2021/12/10 07:17:27;;;;;;;1.23;0.40;;;;;;;3.93;63.60;94979.38;4986079;28;20460;-81
2021/12/10 07:19:52;;;;;;;3.25;0.88;;;;;;;3.85;63.02;94974.75;4996372;28;20213;-81
2021/12/10 07:22:18;;;;;;;3.03;0.45;;;;;;;4.00;63.49;94978.38;4969351;28;20193;-82
2021/12/10 07:24:43;;;;;;;1.27;0.73;;;;;;;4.00;63.38;94983.53;4984637;28;20712;-82
2021/12/10 07:27:11;;;;;;;2.05;0.32;;;;;;;3.96;63.26;94977.31;4985234;28;20248;-82
2021/12/10 07:29:38;;;;;;;2.97;0.98;;;;;;;3.91;63.65;94976.31;4968352;28;20302;-82
2021/12/10 07:32:04;;;;;;;1.23;0.40;;;;;;;3.99;64.04;94987.13;4990365;28;20236;-82
2021/12/10 07:34:29;;;;;;;2.90;0.75;;;;;;;3.96;64.02;94988.41;4967894;28;20255;-82
2021/12/10 07:36:55;;;;;;;3.95;0.75;;;;;;;4.00;63.73;94993.81;4992512;28;20183;-82
2021/12/10 07:39:20;;;;;;;3.03;0.60;;;;;;;3.91;64.59;94984.03;4972160;28;20177;-82
2021/12/10 07:41:47;;;;;;;1.70;0.40;;;;;;;3.89;64.09;94980.16;5000986;28;20181;-82
2021/12/10 07:44:12;;;;;;;3.13;0.80;;;;;;;3.92;64.23;94993.31;4969768;28;20586;-82
2021/12/10 07:46:39;;;;;;;3.38;0.80;;;;;;;3.87;63.69;94985.56;4973003;28;20273;-82
2021/12/10 07:49:13;;;;;;;3.20;1.20;;;;;;;3.91;64.17;94984.03;5001437;28;20322;-82
2021/12/10 07:51:38;;;;;;;8.23;1.17;;;;;;;3.93;64.93;94984.53;4980975;28;20196;-82
2021/12/10 07:54:04;;;;;;;1.52;0.60;;;;;;;4.02;64.92;94978.88;4985493;28;20230;-82
2021/12/10 07:56:31;;;;;;;2.78;1.50;;;;;;;4.00;64.23;94978.38;4983444;28;20282;-82
2021/12/10 07:58:57;;;;;;;4.53;0.85;;;;;;;4.10;64.34;94968.09;5002114;28;20693;-81
2021/12/10 08:01:26;;;;;;;1.80;0.80;;;;;;;4.09;64.92;94966.53;4984889;28;20162;-81
2021/12/10 08:03:52;;;;;;;1.77;1.30;;;;;;;4.09;64.85;94961.38;4968308;28;20180;-81
2021/12/10 08:06:20;;;;;;;4.82;1.80;;;;;;;4.07;65.19;94953.13;4968420;28;20178;-81
2021/12/10 08:08:46;;;;;;;6.45;1.75;;;;;;;4.16;64.59;94946.44;4965570;28;20308;-81
2021/12/10 08:11:12;;;;;;;7.88;2.20;;;;;;;4.14;64.72;94943.34;4978023;28;20197;-81
2021/12/10 08:13:38;;;;;;;3.00;1.45;;;;;;;4.07;64.27;94935.88;4966081;28;20650;-81
2021/12/10 08:16:04;;;;;;;3.97;1.20;;;;;;;4.17;63.71;94936.94;4985104;28;20181;-81
2021/12/10 08:18:29;;;;;;;3.47;0.93;;;;;;;4.17;63.47;94927.38;4979860;28;20202;-81
2021/12/10 08:20:55;;;;;;;2.45;1.10;;;;;;;4.24;63.50;94921.97;4982165;28;20342;-81
2021/12/10 08:23:21;;;;;;;4.97;1.13;;;;;;;4.32;63.33;94918.88;4983626;28;20213;-80
2021/12/10 08:25:47;;;;;;;4.00;1.33;;;;;;;4.28;63.72;94918.63;4968577;28;20596;-81
2021/12/10 08:28:13;;;;;;;7.60;1.35;;;;;;;4.31;62.72;94912.94;4989417;28;20212;-80
2021/12/10 08:30:40;;;;;;;4.35;1.10;;;;;;;4.50;62.20;94904.66;4975221;28;20302;-81
2021/12/10 08:33:13;;;;;;;4.05;1.00;;;;;;;4.50;62.59;94900.28;4998326;28;20766;-83
2021/12/10 08:35:43;;;;;;;2.97;0.80;;;;;;;4.56;62.10;94895.09;4988006;28;20268;-84
2021/12/10 08:38:09;;;;;;;5.78;1.33;;;;;;;4.61;62.01;94884.78;4992381;28;20197;-83
2021/12/10 08:40:40;;;;;;;2.90;0.95;;;;;;;4.59;61.17;94886.84;4982145;28;20192;-83
2021/12/10 08:43:06;;;;;;;3.67;1.27;;;;;;;4.69;60.75;94882.47;4969180;28;20188;-80
2021/12/10 08:45:33;;;;;;;2.80;0.80;;;;;;;4.68;60.38;94882.72;4981739;28;20278;-80
2021/12/10 08:47:59;;;;;;;4.15;0.88;;;;;;;4.84;60.80;94880.84;4990460;28;20271;-81
2021/12/10 08:50:26;;;;;;;4.97;1.70;;;;;;;4.84;60.22;94867.97;5000894;28;20193;-80
2021/12/10 08:52:56;;;;;;;6.90;1.67;;;;;;;4.85;60.88;94875.44;4998378;28;20263;-80
2021/12/10 08:55:22;;;;;;;2.35;0.85;;;;;;;4.84;60.00;94865.38;5018329;28;20327;-82
2021/12/10 08:57:48;;;;;;;2.85;1.15;;;;;;;4.94;60.18;94872.31;5003671;28;20242;-80
2021/12/10 09:00:15;;;;;;;3.67;0.95;;;;;;;4.82;60.02;94870.81;4986385;28;20205;-80
2021/12/10 09:02:40;;;;;;;5.80;0.70;;;;;;;4.93;60.54;94865.59;4984420;28;20637;-80
2021/12/10 09:05:07;;;;;;;1.60;0.82;;;;;;;4.80;59.46;94857.41;4996572;28;20179;-80
2021/12/10 09:07:33;;;;;;;2.10;0.60;;;;;;;4.64;59.40;94869.59;4970007;28;20201;-81
2021/12/10 09:09:59;;;;;;;2.28;0.65;;;;;;;4.87;59.72;94867.44;4994316;28;20189;-81
2021/12/10 09:12:27;;;;;;;1.65;0.60;;;;;;;4.93;59.32;94866.38;4997543;28;20169;-80
2021/12/10 09:14:54;;;;;;;2.63;0.63;;;;;;;4.97;60.50;94864.03;4982755;28;20232;-80
2021/12/10 09:17:24;;;;;;;3.75;0.63;;;;;;;4.86;60.40;94863.31;5019749;28;20291;-81
2021/12/10 09:19:54;;;;;;;2.45;0.50;;;;;;;5.02;59.92;94872.53;5020119;28;20168;-80
2021/12/10 09:22:20;;;;;;;1.88;0.82;;;;;;;5.05;59.75;94874.59;4986298;28;20272;-81
2021/12/10 09:24:46;;;;;;;3.47;0.88;;;;;;;5.05;60.02;94872.00;5003353;28;20192;-80
2021/12/10 09:27:12;;;;;;;2.25;1.50;;;;;;;5.01;59.90;94877.94;5003197;28;20274;-80
2021/12/10 09:29:40;;;;;;;2.85;0.32;;;;;;;4.67;60.33;94874.19;4979202;28;20756;-80
2021/12/10 09:32:08;;;;;;;1.17;0.40;;;;;;;4.85;60.78;94877.25;4987091;28;20360;-80
2021/12/10 09:34:34;;;;;;;0.70;0.30;;;;;;;4.96;60.92;94883.88;4996205;28;20184;-79
2021/12/10 09:36:59;;;;;;;0.70;0.30;;;;;;;4.94;61.17;94875.66;4984143;28;20706;-80
2021/12/10 09:39:26;;;;;;;1.38;0.70;;;;;;;4.86;61.56;94876.97;4983082;28;20261;-79
2021/12/10 09:41:53;;;;;;;2.97;0.75;;;;;;;4.86;61.81;94874.38;4982872;28;20204;-80
2021/12/10 09:44:20;;;;;;;2.05;0.50;;;;;;;4.76;61.85;94873.66;4994880;28;20654;-80
2021/12/10 09:46:47;;;;;;;3.20;0.50;;;;;;;4.85;61.81;94877.25;4993251;28;20214;-82
2021/12/10 09:49:13;;;;;;;1.98;0.60;;;;;;;4.82;62.23;94873.38;5016075;28;20591;-80
2021/12/10 09:51:49;;;;;;;3.25;0.40;;;;;;;4.69;62.74;94872.16;4981430;28;20288;-80
2021/12/10 09:54:17;;;;;;;2.03;0.52;;;;;;;4.86;62.47;94873.63;4990673;28;20171;-80
2021/12/10 09:56:50;;;;;;;3.97;0.50;;;;;;;4.81;62.05;94871.06;4980498;28;20296;-79
2021/12/10 09:59:17;;;;;;;3.13;0.60;;;;;;;4.84;63.40;94867.97;5001053;28;20338;-79
2021/12/10 10:01:45;;;;;;;4.82;0.73;;;;;;;4.82;63.52;94865.66;4990058;28;20170;-79
2021/12/10 10:04:14;;;;;;;1.55;0.73;;;;;;;4.80;63.99;94878.03;4986278;28;20185;-79
2021/12/10 10:06:48;;;;;;;4.95;1.15;;;;;;;4.64;63.67;94867.00;4990884;28;20732;-79
2021/12/10 10:09:16;;;;;;;2.78;0.50;;;;;;;4.79;63.21;94870.56;4985482;28;20586;-79
2021/12/10 10:11:43;;;;;;;3.75;0.65;;;;;;;4.74;63.98;94855.13;5001689;28;20200;-79
2021/12/10 10:14:09;;;;;;;2.05;0.45;;;;;;;4.59;64.32;94850.78;4999650;28;20711;-79
2021/12/10 10:16:35;;;;;;;4.22;0.70;;;;;;;4.76;64.13;94855.63;5014420;28;20192;-80
2021/12/10 10:19:03;;;;;;;1.75;0.50;;;;;;;4.66;63.52;94853.84;5002355;28;20631;-79
2021/12/10 10:21:34;;;;;;;1.50;0.45;;;;;;;4.64;63.64;94846.41;4977285;28;20744;-79
2021/12/10 10:24:00;;;;;;;2.75;0.77;;;;;;;4.75;64.14;94836.03;4998194;28;20366;-79
2021/12/10 10:26:34;;;;;;;1.83;0.50;;;;;;;4.67;64.19;94842.50;5001531;28;20640;-79
2021/12/10 10:29:03;;;;;;;3.03;0.80;;;;;;;4.71;64.29;94838.34;4998736;28;20624;-79
2021/12/10 10:31:29;;;;;;;2.55;0.68;;;;;;;4.75;63.90;94836.03;4966916;28;20347;-79
2021/12/10 10:33:56;;;;;;;1.52;0.60;;;;;;;4.71;64.49;94837.59;4978044;28;20713;-79
2021/12/10 10:36:26;;;;;;;2.13;0.98;;;;;;;4.44;65.03;94833.59;4966683;28;20241;-79
2021/12/10 10:39:03;;;;;;;3.78;1.08;;;;;;;4.39;65.48;94828.44;4980174;28;20166;-79
2021/12/10 10:41:31;;;;;;;2.10;0.93;;;;;;;4.49;65.46;94823.25;4997952;28;20197;-79
2021/12/10 10:43:57;;;;;;;3.08;0.70;;;;;;;4.67;64.31;94821.88;4985400;28;20657;-79
2021/12/10 10:46:22;;;;;;;2.72;0.70;;;;;;;4.58;64.30;94813.94;4968265;28;20286;-79
2021/12/10 10:48:48;;;;;;;1.10;0.55;;;;;;;4.68;65.09;94813.13;4979214;28;20636;-79
2021/12/10 10:51:24;;;;;;;2.72;0.70;;;;;;;4.62;64.41;94812.34;4993753;28;20192;-79
2021/12/10 10:53:52;;;;;;;2.85;0.90;;;;;;;4.54;65.19;94809.56;4985966;28;20643;-78
2021/12/10 10:56:36;;;;;;;2.60;0.55;;;;;;;4.55;64.98;94804.16;4995793;28;20270;-79
2021/12/10 10:59:10;;;;;;;1.65;0.60;;;;;;;4.59;64.99;94809.53;4985860;28;20271;-79
2021/12/10 11:01:46;;;;;;;1.87;0.63;;;;;;;4.61;64.90;94805.69;5000294;28;20275;-79
2021/12/10 11:04:26;;;;;;;2.05;0.47;;;;;;;4.44;65.03;94806.00;4985343;28;20692;-78
2021/12/10 11:06:57;;;;;;;0.82;0.45;;;;;;;4.53;64.67;94803.66;4976515;28;20279;-78
2021/12/10 11:09:26;;;;;;;2.35;0.50;;;;;;;4.55;65.50;94808.53;4983927;28;20167;-78
2021/12/10 11:11:58;;;;;;;1.77;0.65;;;;;;;4.47;66.04;94799.53;4983890;28;20205;-78
2021/12/10 11:14:29;;;;;;;3.00;0.50;;;;;;;4.50;65.56;94799.00;4981223;28;20271;-78
2021/12/10 11:17:03;;;;;;;1.77;0.60;;;;;;;4.42;66.08;94795.19;4984145;28;20201;-78
2021/12/10 11:19:30;;;;;;;2.15;0.38;;;;;;;4.54;66.40;94792.31;4984855;28;20233;-78
2021/12/10 11:21:59;;;;;;;0.75;0.30;;;;;;;4.49;65.59;94790.53;4992076;28;20204;-78
2021/12/10 11:24:45;;;;;;;0.88;0.50;;;;;;;4.44;66.57;94787.22;4981484;28;20205;-78
2021/12/10 11:27:28;;;;;;;1.27;0.50;;;;;;;4.45;66.64;94793.88;4985352;28;20197;-78
2021/12/10 11:30:07;;;;;;;1.77;0.55;;;;;;;4.38;65.98;94783.09;4989668;28;20158;-78
2021/12/10 11:33:03;;;;;;;0.63;0.30;;;;;;;4.57;66.12;94780.69;4983835;28;20569;-78
2021/12/10 11:35:36;;;;;;;1.35;0.50;;;;;;;4.56;66.61;94768.84;4984385;28;20642;-78
2021/12/10 11:38:16;;;;;;;1.40;0.60;;;;;;;4.45;65.96;94774.03;4975931;28;20157;-78
2021/12/10 11:41:05;;;;;;;1.23;1.13;;;;;;;4.50;66.78;94770.66;4996236;28;20634;-78
2021/12/10 11:46:44;;;;;;;1.75;0.50;;;;;;;4.59;66.88;94763.94;4992218;28;20735;-78
2021/12/10 11:49:09;;;;;;;1.90;0.50;;;;;;;4.66;66.57;94769.56;4996429;28;20215;-78
2021/12/10 11:52:05;;;;;;;1.15;0.20;;;;;;;4.53;66.43;94766.81;4983899;28;20689;-78
2021/12/10 11:54:36;;;;;;;1.08;0.50;;;;;;;4.61;66.72;94764.44;5001718;28;20205;-78
2021/12/10 11:57:04;;;;;;;0.60;0.32;;;;;;;4.68;66.60;94769.31;4984034;28;20193;-78